createdAt,value
2019-04-25T00:01:15.383Z,99.90
2019-04-25T00:06:32.156Z,99.90
2019-04-25T00:13:06.054Z,99.90
2019-04-25T00:18:33.589Z,99.90
2019-04-25T00:21:16.644Z,99.90
2019-04-25T00:23:51.549Z,99.90
2019-04-25T00:36:14.942Z,99.90
2019-04-25T00:38:54.873Z,99.90
2019-04-25T00:44:57.963Z,99.90
2019-04-25T00:47:32.271Z,99.90
2019-04-25T00:53:40.040Z,99.90
2019-04-25T00:56:11.274Z,99.90
2019-04-25T01:04:09.963Z,99.90
2019-04-25T01:10:23.118Z,99.90
2019-04-25T01:12:54.512Z,99.90
2019-04-25T01:15:28.554Z,99.90
2019-04-25T01:18:01.209Z,99.90
2019-04-25T01:20:32.251Z,99.90
2019-04-25T01:23:03.963Z,99.90
2019-04-25T01:25:40.925Z,99.90
2019-04-25T01:35:33.559Z,99.90
2019-04-25T01:47:08.089Z,99.90
2019-04-25T01:52:41.304Z,99.90
2019-04-25T02:06:47.735Z,99.90
2019-04-25T02:09:19.470Z,99.90
2019-04-25T02:12:04.903Z,99.90
2019-04-25T02:14:34.929Z,99.90
2019-04-25T02:17:04.627Z,99.90
2019-04-25T02:19:35.716Z,99.90
2019-04-25T02:22:05.505Z,99.90
2019-04-25T02:24:35.000Z,99.90
2019-04-25T02:27:04.776Z,99.90
2019-04-25T02:29:36.197Z,99.90
2019-04-25T02:32:11.026Z,99.90
2019-04-25T02:34:42.353Z,99.90
2019-04-25T02:37:14.568Z,99.90
2019-04-25T02:39:44.841Z,99.90
2019-04-25T02:42:16.856Z,99.90
2019-04-25T03:17:21.036Z,99.90
2019-04-25T03:20:24.612Z,99.90
2019-04-25T03:22:55.332Z,99.90
2019-04-25T03:25:31.582Z,99.90
2019-04-25T03:28:04.983Z,99.90
2019-04-25T03:30:36.267Z,99.90
2019-04-25T03:33:13.652Z,99.90
2019-04-25T03:38:51.163Z,99.90
2019-04-25T03:41:45.561Z,99.90
2019-04-25T03:44:14.882Z,99.90
2019-04-25T03:47:13.580Z,99.90
2019-04-25T03:50:07.282Z,99.90
2019-04-25T03:52:37.533Z,99.90
2019-04-25T03:55:15.272Z,99.90
2019-04-25T03:57:56.210Z,99.90
2019-04-25T04:00:25.776Z,99.90
2019-04-25T04:03:21.333Z,99.90
2019-04-25T04:05:52.171Z,99.90
2019-04-25T04:08:21.500Z,99.90
2019-04-25T04:10:51.345Z,99.90
2019-04-25T04:13:24.352Z,99.90
2019-04-25T04:15:55.576Z,99.90
2019-04-25T04:18:45.294Z,99.90
2019-04-25T04:21:24.424Z,99.90
2019-04-25T04:24:04.086Z,99.90
2019-04-25T04:26:40.176Z,99.90
2019-04-25T04:29:10.103Z,99.90
2019-04-25T04:31:40.080Z,99.90
2019-04-25T04:34:09.470Z,99.90
2019-04-25T04:36:46.543Z,99.90
2019-04-25T04:39:16.846Z,99.90
2019-04-25T04:41:56.822Z,99.90
2019-04-25T04:49:01.210Z,99.90
2019-04-25T05:04:25.217Z,99.90
2019-04-25T05:07:25.225Z,99.90
2019-04-25T05:10:03.337Z,99.90
2019-04-25T05:12:34.454Z,99.90
2019-04-25T05:15:07.789Z,99.90
2019-04-25T05:17:43.922Z,99.90
2019-04-25T05:20:35.789Z,99.90
2019-04-25T05:24:21.323Z,99.90
2019-04-25T05:30:58.278Z,99.90
2019-04-25T05:34:06.306Z,99.90
2019-04-25T05:36:43.856Z,99.90
2019-04-25T05:39:56.092Z,99.90
2019-04-25T05:43:00.756Z,99.90
2019-04-25T05:51:59.323Z,99.90
2019-04-25T16:08:39.195Z,35.80
2019-04-25T16:17:34.871Z,36.00
2019-04-25T16:23:24.274Z,36.80
2019-04-25T16:26:05.662Z,37.20
2019-04-25T16:32:25.099Z,40.40
2019-04-25T16:38:48.867Z,42.10
2019-04-25T16:42:19.381Z,43.00
2019-04-25T16:45:31.242Z,43.50
2019-04-25T16:54:22.319Z,45.00
2019-04-25T16:56:51.929Z,44.80
2019-04-25T16:59:27.006Z,45.20
2019-04-25T17:01:56.123Z,45.30
2019-04-25T17:04:35.437Z,45.00
2019-04-25T17:07:08.998Z,44.90
2019-04-25T17:09:40.459Z,45.00
2019-04-25T17:20:21.785Z,46.00
2019-04-25T17:22:58.561Z,46.30
2019-04-25T17:41:13.539Z,47.70
2019-04-25T17:46:43.972Z,48.10
2019-04-25T17:55:10.901Z,48.80
2019-04-25T17:57:40.061Z,49.20
2019-04-25T18:00:12.635Z,51.00
2019-04-25T18:02:58.592Z,50.50
2019-04-25T18:05:32.094Z,50.60
2019-04-25T18:08:02.525Z,50.90
2019-04-25T18:10:35.516Z,51.00
2019-04-25T18:13:05.157Z,51.00
2019-04-25T18:16:04.791Z,51.40
2019-04-25T18:18:43.609Z,51.70
2019-04-25T18:21:12.715Z,51.90
2019-04-25T18:27:00.338Z,52.80
2019-04-25T18:29:29.647Z,53.10
2019-04-25T18:32:03.149Z,53.10
2019-04-25T18:34:48.557Z,53.00
2019-04-25T18:37:42.637Z,53.10
2019-04-25T18:40:29.318Z,53.10
2019-04-25T18:43:44.782Z,53.40
2019-04-25T18:46:31.874Z,53.50
2019-04-25T18:49:15.425Z,53.70
2019-04-25T18:51:56.506Z,53.70
2019-04-25T18:54:30.106Z,54.10
2019-04-25T18:57:52.275Z,54.10
2019-04-25T19:00:43.700Z,54.30
2019-04-25T19:07:22.490Z,54.50
2019-04-25T19:09:51.541Z,54.10
2019-04-25T19:12:23.691Z,54.90
2019-04-25T19:14:52.757Z,54.30
2019-04-25T19:21:09.769Z,55.40
2019-04-25T19:23:48.076Z,55.70
2019-04-25T19:30:14.724Z,56.10
2019-04-25T19:33:14.566Z,56.70
2019-04-25T19:35:45.760Z,56.50
2019-04-25T19:38:21.089Z,57.00
2019-04-25T19:40:58.081Z,58.00
2019-04-25T19:43:40.998Z,58.00
2019-04-25T19:48:59.757Z,58.60
2019-04-25T19:51:31.233Z,58.40
2019-04-25T19:54:01.110Z,58.60
2019-04-25T19:56:30.137Z,58.70
2019-04-25T19:58:59.831Z,59.10
2019-04-25T20:01:36.327Z,59.30
2019-04-25T20:04:39.114Z,59.20
2019-04-25T20:10:23.639Z,59.70
2019-04-25T20:12:55.006Z,59.50
2019-04-25T20:15:34.296Z,59.20
2019-04-25T20:18:35.171Z,59.40
2019-04-25T20:24:25.696Z,59.10
2019-04-25T20:32:28.996Z,59.60
2019-04-25T20:35:00.323Z,60.10
2019-04-25T20:37:30.494Z,60.60
2019-04-25T20:39:59.842Z,60.80
2019-04-25T20:42:30.896Z,60.70
2019-04-25T20:45:03.577Z,61.60
2019-04-25T20:47:33.781Z,61.80
2019-04-25T20:50:06.915Z,61.80
2019-04-25T20:52:38.147Z,61.90
2019-04-25T20:55:11.383Z,62.10
2019-04-25T20:57:40.657Z,62.30
2019-04-25T21:00:10.383Z,62.90
2019-04-25T21:02:39.653Z,63.00
2019-04-25T21:05:08.992Z,63.50
2019-04-25T21:07:38.185Z,63.90
2019-04-25T21:10:07.664Z,65.00
2019-04-25T21:12:37.138Z,64.50
2019-04-25T21:15:27.561Z,65.30
2019-04-25T21:18:17.834Z,65.80
2019-04-25T21:20:47.489Z,65.60
2019-04-25T21:23:16.811Z,66.80
2019-04-25T21:25:55.404Z,67.30
2019-04-25T21:28:24.611Z,67.50
2019-04-25T21:30:54.782Z,68.00
2019-04-25T21:33:25.380Z,68.20
2019-04-25T21:35:55.520Z,67.50
2019-04-25T21:38:24.973Z,68.20
2019-04-25T21:41:04.720Z,68.50
2019-04-25T21:44:22.020Z,69.10
2019-04-25T21:46:53.662Z,70.10
2019-04-25T21:49:25.259Z,71.10
2019-04-25T21:51:59.184Z,71.60
2019-04-25T21:54:32.813Z,71.70
2019-04-25T21:57:03.953Z,71.50
2019-04-25T21:59:59.013Z,71.70
2019-04-25T22:03:39.625Z,71.90
2019-04-25T22:06:51.939Z,71.70
2019-04-25T22:09:42.267Z,72.70
2019-04-25T22:12:12.624Z,73.60
2019-04-25T22:14:42.672Z,73.70
2019-04-25T22:17:14.299Z,73.30
2019-04-25T22:19:43.692Z,73.80
2019-04-25T22:22:13.203Z,73.90
2019-04-25T22:24:43.844Z,74.10
2019-04-25T22:27:19.377Z,74.60
2019-04-25T22:29:52.942Z,75.20
2019-04-25T22:33:11.168Z,76.00
2019-04-25T22:35:47.791Z,77.60
2019-04-25T22:38:17.362Z,78.30
2019-04-25T22:40:46.675Z,79.40
2019-04-25T22:43:16.186Z,80.00
2019-04-25T22:45:45.727Z,81.70
2019-04-25T22:48:16.607Z,83.80
2019-04-25T22:50:47.592Z,84.30
2019-04-25T22:53:23.674Z,87.20
2019-04-25T22:55:47.666Z,88.20
2019-04-25T22:58:16.901Z,88.60
2019-04-25T23:00:46.122Z,89.10
2019-04-25T23:03:25.519Z,89.50
2019-04-25T23:05:56.852Z,89.70
2019-04-25T23:08:27.865Z,90.10
2019-04-25T23:10:57.089Z,90.30
2019-04-25T23:13:26.315Z,90.20
2019-04-25T23:15:55.544Z,90.40
2019-04-25T23:18:24.957Z,90.20
2019-04-25T23:20:54.173Z,90.50
2019-04-25T23:23:25.702Z,90.40
2019-04-25T23:26:00.238Z,90.40
2019-04-25T23:28:32.667Z,90.50
2019-04-25T23:31:24.050Z,90.70
2019-04-25T23:33:53.467Z,91.10
2019-04-25T23:36:22.721Z,91.10
2019-04-25T23:38:51.942Z,91.40
2019-04-25T23:41:22.845Z,91.60
2019-04-25T23:43:52.110Z,92.10
2019-04-25T23:46:21.925Z,92.40
2019-04-25T23:48:51.236Z,92.20
2019-04-25T23:51:22.201Z,92.70
2019-04-25T23:53:51.909Z,92.60
2019-04-25T23:56:21.203Z,93.00
2019-04-25T23:58:51.050Z,93.60
